sensor_id;sensor_type;location;lat;lon;timestamp;pressure;altitude;pressure_sealevel;temperature;humidity
10606;BME280;5350;42.698;23.148;2023-08-12T00:00:41;94235.34;;;16.26;100.00
10606;BME280;5350;42.698;23.148;2023-08-12T00:03:08;94240.50;;;16.31;100.00
10606;BME280;5350;42.698;23.148;2023-08-12T00:05:35;94227.38;;;16.18;100.00
10606;BME280;5350;42.698;23.148;2023-08-12T00:08:02;94244.09;;;16.18;100.00
10606;BME280;5350;42.698;23.148;2023-08-12T00:10:31;94234.72;;;16.12;100.00
10606;BME280;5350;42.698;23.148;2023-08-12T00:12:57;94230.78;;;16.10;100.00
10606;BME280;5350;42.698;23.148;2023-08-12T00:15:25;94233.47;;;16.18;100.00
10606;BME280;5350;42.698;23.148;2023-08-12T00:17:52;94229.56;;;16.16;100.00
10606;BME280;5350;42.698;23.148;2023-08-12T00:20:18;94227.50;;;16.04;100.00
10606;BME280;5350;42.698;23.148;2023-08-12T00:22:45;94219.19;;;15.97;100.00
10606;BME280;5350;42.698;23.148;2023-08-12T00:25:12;94226.25;;;16.02;100.00
10606;BME280;5350;42.698;23.148;2023-08-12T00:27:40;94233.88;;;16.03;100.00
10606;BME280;5350;42.698;23.148;2023-08-12T00:30:07;94229.66;;;16.02;100.00
10606;BME280;5350;42.698;23.148;2023-08-12T00:32:34;94221.22;;;16.00;100.00
10606;BME280;5350;42.698;23.148;2023-08-12T00:35:01;94232.47;;;15.97;100.00
10606;BME280;5350;42.698;23.148;2023-08-12T00:37:29;94208.03;;;15.78;100.00
10606;BME280;5350;42.698;23.148;2023-08-12T00:39:55;94229.34;;;15.95;100.00
10606;BME280;5350;42.698;23.148;2023-08-12T00:42:22;94227.28;;;15.92;100.00
10606;BME280;5350;42.698;23.148;2023-08-12T00:44:50;94234.78;;;15.90;100.00
10606;BME280;5350;42.698;23.148;2023-08-12T00:47:17;94228.53;;;15.94;100.00
10606;BME280;5350;42.698;23.148;2023-08-12T00:49:44;94225.44;;;16.01;100.00
10606;BME280;5350;42.698;23.148;2023-08-12T00:52:11;94203.38;;;15.75;100.00
10606;BME280;5350;42.698;23.148;2023-08-12T00:54:38;94222.63;;;15.97;100.00
10606;BME280;5350;42.698;23.148;2023-08-12T00:57:06;94220.44;;;15.91;100.00
10606;BME280;5350;42.698;23.148;2023-08-12T00:59:35;94208.41;;;15.85;100.00
10606;BME280;5350;42.698;23.148;2023-08-12T01:02:03;94210.28;;;15.93;100.00
10606;BME280;5350;42.698;23.148;2023-08-12T01:04:30;94204.03;;;15.89;100.00
10606;BME280;5350;42.698;23.148;2023-08-12T01:06:57;94207.75;;;15.88;100.00
10606;BME280;5350;42.698;23.148;2023-08-12T01:09:24;94206.53;;;15.94;100.00
10606;BME280;5350;42.698;23.148;2023-08-12T01:11:56;94204.97;;;15.93;100.00
10606;BME280;5350;42.698;23.148;2023-08-12T01:14:28;94212.00;;;15.89;100.00
10606;BME280;5350;42.698;23.148;2023-08-12T01:17:01;94206.78;;;15.75;100.00
10606;BME280;5350;42.698;23.148;2023-08-12T01:19:33;94202.59;;;15.74;100.00
10606;BME280;5350;42.698;23.148;2023-08-12T01:22:01;94216.13;;;15.73;100.00
10606;BME280;5350;42.698;23.148;2023-08-12T01:24:35;94207.41;;;15.72;100.00
10606;BME280;5350;42.698;23.148;2023-08-12T01:27:02;94209.28;;;15.72;100.00
10606;BME280;5350;42.698;23.148;2023-08-12T01:29:29;94203.19;;;15.71;100.00
10606;BME280;5350;42.698;23.148;2023-08-12T01:31:59;94210.97;;;15.68;100.00
10606;BME280;5350;42.698;23.148;2023-08-12T01:34:34;94158.72;;;15.38;100.00
10606;BME280;5350;42.698;23.148;2023-08-12T01:37:09;94209.88;;;15.69;100.00
10606;BME280;5350;42.698;23.148;2023-08-12T01:39:39;94200.72;;;15.75;100.00
10606;BME280;5350;42.698;23.148;2023-08-12T01:42:09;94201.91;;;15.60;100.00
10606;BME280;5350;42.698;23.148;2023-08-12T01:44:36;94201.63;;;15.70;100.00
10606;BME280;5350;42.698;23.148;2023-08-12T01:47:03;94202.06;;;15.64;100.00
10606;BME280;5350;42.698;23.148;2023-08-12T01:49:30;94196.88;;;15.59;100.00
10606;BME280;5350;42.698;23.148;2023-08-12T01:51:57;94203.13;;;15.63;100.00
10606;BME280;5350;42.698;23.148;2023-08-12T01:54:23;94204.84;;;15.59;100.00
10606;BME280;5350;42.698;23.148;2023-08-12T01:56:51;94201.44;;;15.67;100.00
10606;BME280;5350;42.698;23.148;2023-08-12T01:59:18;94200.16;;;15.56;100.00
10606;BME280;5350;42.698;23.148;2023-08-12T02:01:45;94206.38;;;15.51;100.00
10606;BME280;5350;42.698;23.148;2023-08-12T02:04:12;94216.81;;;15.48;100.00
10606;BME280;5350;42.698;23.148;2023-08-12T02:06:38;94213.38;;;15.47;100.00
10606;BME280;5350;42.698;23.148;2023-08-12T02:09:05;94209.47;;;15.45;100.00
10606;BME280;5350;42.698;23.148;2023-08-12T02:11:32;94214.34;;;15.51;100.00
10606;BME280;5350;42.698;23.148;2023-08-12T02:14:00;94198.91;;;15.31;100.00
10606;BME280;5350;42.698;23.148;2023-08-12T02:16:26;94204.56;;;15.38;100.00
10606;BME280;5350;42.698;23.148;2023-08-12T02:18:53;94207.63;;;15.32;100.00
10606;BME280;5350;42.698;23.148;2023-08-12T02:21:20;94198.91;;;15.31;100.00
10606;BME280;5350;42.698;23.148;2023-08-12T02:23:46;94207.53;;;15.37;100.00
10606;BME280;5350;42.698;23.148;2023-08-12T02:26:13;94202.50;;;15.57;99.71
10606;BME280;5350;42.698;23.148;2023-08-12T02:28:40;94204.38;;;15.57;100.00
10606;BME280;5350;42.698;23.148;2023-08-12T02:31:08;94188.25;;;15.45;98.66
10606;BME280;5350;42.698;23.148;2023-08-12T02:33:35;94209.63;;;15.48;97.86
10606;BME280;5350;42.698;23.148;2023-08-12T02:36:02;94210.28;;;15.32;100.00
10606;BME280;5350;42.698;23.148;2023-08-12T02:38:28;94211.13;;;15.41;99.99
10606;BME280;5350;42.698;23.148;2023-08-12T02:40:55;94198.13;;;15.31;100.00
10606;BME280;5350;42.698;23.148;2023-08-12T02:43:22;94209.63;;;15.48;99.18
10606;BME280;5350;42.698;23.148;2023-08-12T02:45:48;94217.28;;;15.50;100.00
10606;BME280;5350;42.698;23.148;2023-08-12T02:48:16;94209.06;;;15.38;99.86
10606;BME280;5350;42.698;23.148;2023-08-12T02:50:43;94212.19;;;15.40;99.88
10606;BME280;5350;42.698;23.148;2023-08-12T02:53:10;94214.63;;;15.28;100.00
10606;BME280;5350;42.698;23.148;2023-08-12T02:55:37;94218.56;;;15.30;99.51
10606;BME280;5350;42.698;23.148;2023-08-12T02:58:04;94212.72;;;15.19;100.00
10606;BME280;5350;42.698;23.148;2023-08-12T03:00:31;94220.03;;;15.14;100.00
10606;BME280;5350;42.698;23.148;2023-08-12T03:02:57;94216.00;;;15.25;99.98
10606;BME280;5350;42.698;23.148;2023-08-12T03:05:25;94220.97;;;15.18;100.00
10606;BME280;5350;42.698;23.148;2023-08-12T03:07:52;94228.06;;;15.09;100.00
10606;BME280;5350;42.698;23.148;2023-08-12T03:10:19;94218.44;;;15.13;100.00
10606;BME280;5350;42.698;23.148;2023-08-12T03:12:46;94218.13;;;15.14;100.00
10606;BME280;5350;42.698;23.148;2023-08-12T03:15:12;94222.72;;;15.23;100.00
10606;BME280;5350;42.698;23.148;2023-08-12T03:17:39;94222.47;;;15.33;100.00
10606;BME280;5350;42.698;23.148;2023-08-12T03:20:07;94220.38;;;15.43;98.77
10606;BME280;5350;42.698;23.148;2023-08-12T03:22:36;94224.38;;;15.41;98.93
10606;BME280;5350;42.698;23.148;2023-08-12T03:25:03;94230.75;;;15.40;99.55
10606;BME280;5350;42.698;23.148;2023-08-12T03:27:30;94230.06;;;15.26;100.00
10606;BME280;5350;42.698;23.148;2023-08-12T03:29:57;94229.25;;;15.25;100.00
10606;BME280;5350;42.698;23.148;2023-08-12T03:32:24;94220.56;;;15.25;100.00
10606;BME280;5350;42.698;23.148;2023-08-12T03:34:51;94228.84;;;15.32;100.00
10606;BME280;5350;42.698;23.148;2023-08-12T03:37:18;94218.97;;;15.23;100.00
10606;BME280;5350;42.698;23.148;2023-08-12T03:39:46;94221.78;;;15.18;100.00
10606;BME280;5350;42.698;23.148;2023-08-12T03:42:13;94221.88;;;15.13;100.00
10606;BME280;5350;42.698;23.148;2023-08-12T03:44:40;94227.66;;;15.15;100.00
10606;BME280;5350;42.698;23.148;2023-08-12T03:47:07;94231.22;;;15.11;100.00
10606;BME280;5350;42.698;23.148;2023-08-12T03:49:34;94225.59;;;15.12;100.00
10606;BME280;5350;42.698;23.148;2023-08-12T03:52:00;94235.97;;;15.00;100.00
10606;BME280;5350;42.698;23.148;2023-08-12T03:54:27;94225.75;;;15.07;100.00
10606;BME280;5350;42.698;23.148;2023-08-12T03:56:55;94238.75;;;15.17;100.00
10606;BME280;5350;42.698;23.148;2023-08-12T03:59:22;94233.13;;;15.19;100.00
10606;BME280;5350;42.698;23.148;2023-08-12T04:01:49;94234.88;;;15.23;100.00
10606;BME280;5350;42.698;23.148;2023-08-12T04:04:15;94230.53;;;15.28;100.00
10606;BME280;5350;42.698;23.148;2023-08-12T04:06:42;94231.50;;;15.32;100.00
10606;BME280;5350;42.698;23.148;2023-08-12T04:09:09;94234.03;;;15.37;100.00
10606;BME280;5350;42.698;23.148;2023-08-12T04:11:35;94227.53;;;15.43;100.00
10606;BME280;5350;42.698;23.148;2023-08-12T04:14:04;94228.34;;;15.43;100.00
10606;BME280;5350;42.698;23.148;2023-08-12T04:16:30;94236.50;;;15.55;100.00
10606;BME280;5350;42.698;23.148;2023-08-12T04:18:57;94230.31;;;15.68;97.60
10606;BME280;5350;42.698;23.148;2023-08-12T04:21:24;94229.25;;;15.78;98.17
10606;BME280;5350;42.698;23.148;2023-08-12T04:23:51;94231.31;;;15.81;97.10
10606;BME280;5350;42.698;23.148;2023-08-12T04:26:17;94238.38;;;15.94;97.49
10606;BME280;5350;42.698;23.148;2023-08-12T04:28:44;94237.13;;;16.00;97.27
10606;BME280;5350;42.698;23.148;2023-08-12T04:31:12;94234.72;;;16.12;97.08
10606;BME280;5350;42.698;23.148;2023-08-12T04:33:39;94240.50;;;16.23;97.80
10606;BME280;5350;42.698;23.148;2023-08-12T04:36:06;94237.84;;;16.31;95.31
10606;BME280;5350;42.698;23.148;2023-08-12T04:38:33;94231.81;;;16.39;95.27
10606;BME280;5350;42.698;23.148;2023-08-12T04:41:00;94248.50;;;16.48;93.30
10606;BME280;5350;42.698;23.148;2023-08-12T04:43:27;94185.53;;;16.32;93.22
10606;BME280;5350;42.698;23.148;2023-08-12T04:45:54;94240.16;;;16.72;89.98
10606;BME280;5350;42.698;23.148;2023-08-12T04:48:22;94237.78;;;16.96;86.31
10606;BME280;5350;42.698;23.148;2023-08-12T04:50:49;94234.66;;;17.03;88.03
10606;BME280;5350;42.698;23.148;2023-08-12T04:53:16;94231.84;;;17.16;87.95
10606;BME280;5350;42.698;23.148;2023-08-12T04:55:42;94240.75;;;17.29;86.69
10606;BME280;5350;42.698;23.148;2023-08-12T04:58:09;94235.25;;;17.42;88.69
10606;BME280;5350;42.698;23.148;2023-08-12T05:00:36;94232.91;;;17.58;87.08
10606;BME280;5350;42.698;23.148;2023-08-12T05:03:03;94234.28;;;17.64;85.42
10606;BME280;5350;42.698;23.148;2023-08-12T05:05:31;94234.72;;;17.75;85.64
10606;BME280;5350;42.698;23.148;2023-08-12T05:07:58;94240.16;;;17.87;85.36
10606;BME280;5350;42.698;23.148;2023-08-12T05:10:24;94239.00;;;17.96;85.20
10606;BME280;5350;42.698;23.148;2023-08-12T05:12:51;94243.47;;;18.13;83.38
10606;BME280;5350;42.698;23.148;2023-08-12T05:15:19;94244.56;;;18.20;80.41
10606;BME280;5350;42.698;23.148;2023-08-12T05:17:46;94235.25;;;18.35;79.93
10606;BME280;5350;42.698;23.148;2023-08-12T05:20:13;94235.69;;;18.46;79.23
10606;BME280;5350;42.698;23.148;2023-08-12T05:22:41;94242.09;;;18.45;78.98
10606;BME280;5350;42.698;23.148;2023-08-12T05:25:08;94217.69;;;18.34;78.30
10606;BME280;5350;42.698;23.148;2023-08-12T05:27:35;94242.47;;;18.64;78.88
10606;BME280;5350;42.698;23.148;2023-08-12T05:30:01;94245.25;;;18.67;81.18
10606;BME280;5350;42.698;23.148;2023-08-12T05:32:28;94252.44;;;18.75;79.52
10606;BME280;5350;42.698;23.148;2023-08-12T05:34:55;94251.44;;;18.80;81.19
10606;BME280;5350;42.698;23.148;2023-08-12T05:37:22;94253.41;;;18.91;80.80
10606;BME280;5350;42.698;23.148;2023-08-12T05:39:50;94261.19;;;18.96;82.17
10606;BME280;5350;42.698;23.148;2023-08-12T05:42:16;94252.09;;;18.97;82.71
10606;BME280;5350;42.698;23.148;2023-08-12T05:44:43;94249.69;;;19.04;82.19
10606;BME280;5350;42.698;23.148;2023-08-12T05:47:10;94254.81;;;19.09;83.57
10606;BME280;5350;42.698;23.148;2023-08-12T05:49:37;94252.72;;;19.15;81.92
10606;BME280;5350;42.698;23.148;2023-08-12T05:52:04;94247.53;;;19.19;81.04
10606;BME280;5350;42.698;23.148;2023-08-12T05:54:31;94259.00;;;19.19;81.17
10606;BME280;5350;42.698;23.148;2023-08-12T05:56:59;94252.97;;;19.22;80.72
10606;BME280;5350;42.698;23.148;2023-08-12T05:59:26;94255.97;;;19.41;78.46
10606;BME280;5350;42.698;23.148;2023-08-12T06:01:53;94249.53;;;19.42;80.33
10606;BME280;5350;42.698;23.148;2023-08-12T06:04:20;94258.66;;;19.41;73.30
10606;BME280;5350;42.698;23.148;2023-08-12T06:06:46;94253.31;;;19.41;75.85
10606;BME280;5350;42.698;23.148;2023-08-12T06:09:13;94250.91;;;19.48;78.13
10606;BME280;5350;42.698;23.148;2023-08-12T06:11:40;94254.41;;;19.61;70.99
10606;BME280;5350;42.698;23.148;2023-08-12T06:14:08;94253.59;;;19.60;71.06
10606;BME280;5350;42.698;23.148;2023-08-12T06:16:35;94255.75;;;19.67;71.10
10606;BME280;5350;42.698;23.148;2023-08-12T06:19:02;94246.50;;;19.64;72.15
10606;BME280;5350;42.698;23.148;2023-08-12T06:21:28;94237.16;;;19.70;75.00
10606;BME280;5350;42.698;23.148;2023-08-12T06:23:55;94251.22;;;19.79;74.71
10606;BME280;5350;42.698;23.148;2023-08-12T06:26:22;94253.00;;;20.00;70.48
10606;BME280;5350;42.698;23.148;2023-08-12T06:28:49;94246.44;;;20.09;69.03
10606;BME280;5350;42.698;23.148;2023-08-12T06:31:17;94243.22;;;20.16;68.93
10606;BME280;5350;42.698;23.148;2023-08-12T06:33:43;94239.03;;;20.39;70.73
10606;BME280;5350;42.698;23.148;2023-08-12T06:36:10;94241.16;;;20.45;68.26
10606;BME280;5350;42.698;23.148;2023-08-12T06:38:37;94241.16;;;20.45;67.60
10606;BME280;5350;42.698;23.148;2023-08-12T06:41:04;94237.66;;;20.57;70.47
10606;BME280;5350;42.698;23.148;2023-08-12T06:43:30;94237.66;;;20.57;69.21
10606;BME280;5350;42.698;23.148;2023-08-12T06:45:57;94239.69;;;20.60;69.41
10606;BME280;5350;42.698;23.148;2023-08-12T06:48:25;94233.09;;;20.82;68.43
10606;BME280;5350;42.698;23.148;2023-08-12T06:50:55;94206.72;;;20.56;67.79
10606;BME280;5350;42.698;23.148;2023-08-12T06:53:22;94233.19;;;20.85;65.67
10606;BME280;5350;42.698;23.148;2023-08-12T06:55:49;94234.16;;;20.93;64.43
10606;BME280;5350;42.698;23.148;2023-08-12T06:58:16;94232.06;;;20.86;63.54
10606;BME280;5350;42.698;23.148;2023-08-12T07:00:42;94231.34;;;21.01;62.96
10606;BME280;5350;42.698;23.148;2023-08-12T07:03:09;94230.47;;;21.09;64.40
10606;BME280;5350;42.698;23.148;2023-08-12T07:05:37;94225.84;;;21.22;63.72
10606;BME280;5350;42.698;23.148;2023-08-12T07:08:05;94218.38;;;21.27;61.27
10606;BME280;5350;42.698;23.148;2023-08-12T07:10:31;94228.44;;;21.46;63.92
10606;BME280;5350;42.698;23.148;2023-08-12T07:12:58;94224.63;;;21.47;62.19
10606;BME280;5350;42.698;23.148;2023-08-12T07:15:25;94225.41;;;21.47;61.71
10606;BME280;5350;42.698;23.148;2023-08-12T07:17:51;94227.59;;;21.58;61.48
10606;BME280;5350;42.698;23.148;2023-08-12T07:20:18;94229.75;;;21.68;59.86
10606;BME280;5350;42.698;23.148;2023-08-12T07:22:46;94233.31;;;21.72;58.88
10606;BME280;5350;42.698;23.148;2023-08-12T07:25:13;94230.34;;;21.89;57.14
10606;BME280;5350;42.698;23.148;2023-08-12T07:27:40;94234.75;;;21.97;58.95
10606;BME280;5350;42.698;23.148;2023-08-12T07:30:07;94228.19;;;22.10;58.05
10606;BME280;5350;42.698;23.148;2023-08-12T07:32:36;94222.31;;;22.20;58.36
10606;BME280;5350;42.698;23.148;2023-08-12T07:35:03;94222.19;;;22.32;57.34
10606;BME280;5350;42.698;23.148;2023-08-12T07:37:31;94225.06;;;22.39;59.02
10606;BME280;5350;42.698;23.148;2023-08-12T07:39:59;94229.88;;;22.49;58.81
10606;BME280;5350;42.698;23.148;2023-08-12T07:42:26;94223.25;;;22.59;59.11
10606;BME280;5350;42.698;23.148;2023-08-12T07:44:53;94224.00;;;22.59;57.13
10606;BME280;5350;42.698;23.148;2023-08-12T07:47:19;94215.94;;;22.75;60.34
10606;BME280;5350;42.698;23.148;2023-08-12T07:49:46;94211.66;;;22.89;56.20
10606;BME280;5350;42.698;23.148;2023-08-12T07:52:13;94217.81;;;22.90;56.40
10606;BME280;5350;42.698;23.148;2023-08-12T07:54:40;94212.66;;;23.00;55.55
10606;BME280;5350;42.698;23.148;2023-08-12T07:57:08;94206.72;;;23.11;55.41
10606;BME280;5350;42.698;23.148;2023-08-12T07:59:35;94200.78;;;23.21;55.92
10606;BME280;5350;42.698;23.148;2023-08-12T08:02:02;94203.44;;;23.36;54.57
10606;BME280;5350;42.698;23.148;2023-08-12T08:04:29;94205.59;;;23.50;49.35
10606;BME280;5350;42.698;23.148;2023-08-12T08:06:56;94201.22;;;23.42;52.56
10606;BME280;5350;42.698;23.148;2023-08-12T08:09:23;94202.72;;;23.39;51.83
10606;BME280;5350;42.698;23.148;2023-08-12T08:11:50;94204.41;;;23.47;52.72
10606;BME280;5350;42.698;23.148;2023-08-12T08:14:18;94208.47;;;23.60;51.92
10606;BME280;5350;42.698;23.148;2023-08-12T08:16:45;94207.13;;;23.70;51.32
10606;BME280;5350;42.698;23.148;2023-08-12T08:19:12;94200.56;;;23.90;52.99
10606;BME280;5350;42.698;23.148;2023-08-12T08:21:39;94194.34;;;24.05;50.65
10606;BME280;5350;42.698;23.148;2023-08-12T08:24:06;94205.38;;;24.23;50.42
10606;BME280;5350;42.698;23.148;2023-08-12T08:26:33;94200.03;;;24.26;49.63
10606;BME280;5350;42.698;23.148;2023-08-12T08:29:00;94206.66;;;24.32;48.76
10606;BME280;5350;42.698;23.148;2023-08-12T08:31:28;94204.19;;;24.46;47.77
10606;BME280;5350;42.698;23.148;2023-08-12T08:33:55;94202.50;;;24.61;47.41
10606;BME280;5350;42.698;23.148;2023-08-12T08:36:22;94191.19;;;24.75;48.91
10606;BME280;5350;42.698;23.148;2023-08-12T08:38:49;94201.50;;;24.99;46.66
10606;BME280;5350;42.698;23.148;2023-08-12T08:41:16;94188.59;;;25.11;45.16
10606;BME280;5350;42.698;23.148;2023-08-12T08:43:44;94185.38;;;25.32;45.95
10606;BME280;5350;42.698;23.148;2023-08-12T08:46:14;94188.88;;;25.36;44.82
10606;BME280;5350;42.698;23.148;2023-08-12T08:48:43;94184.88;;;25.23;44.14
10606;BME280;5350;42.698;23.148;2023-08-12T08:51:11;94188.75;;;25.25;43.36
10606;BME280;5350;42.698;23.148;2023-08-12T08:53:38;94183.84;;;25.01;43.42
10606;BME280;5350;42.698;23.148;2023-08-12T08:56:06;94184.78;;;25.16;44.06
10606;BME280;5350;42.698;23.148;2023-08-12T08:58:33;94176.25;;;25.10;44.31
10606;BME280;5350;42.698;23.148;2023-08-12T09:01:01;94162.78;;;25.07;44.94
10606;BME280;5350;42.698;23.148;2023-08-12T09:03:28;94163.63;;;25.14;44.55
10606;BME280;5350;42.698;23.148;2023-08-12T09:05:57;94169.13;;;25.58;44.95
10606;BME280;5350;42.698;23.148;2023-08-12T09:08:26;94174.13;;;25.56;43.71
10606;BME280;5350;42.698;23.148;2023-08-12T09:10:55;94165.03;;;25.71;48.08
10606;BME280;5350;42.698;23.148;2023-08-12T09:13:23;94163.94;;;25.76;43.84
10606;BME280;5350;42.698;23.148;2023-08-12T09:15:50;94157.16;;;25.92;45.04
10606;BME280;5350;42.698;23.148;2023-08-12T09:18:17;94158.00;;;26.03;43.57
10606;BME280;5350;42.698;23.148;2023-08-12T09:20:44;94152.88;;;25.91;43.75
10606;BME280;5350;42.698;23.148;2023-08-12T09:23:12;94152.97;;;26.02;42.27
10606;BME280;5350;42.698;23.148;2023-08-12T09:25:41;94149.69;;;26.23;43.29
10606;BME280;5350;42.698;23.148;2023-08-12T09:28:09;94151.00;;;26.43;44.03
10606;BME280;5350;42.698;23.148;2023-08-12T09:30:37;94153.75;;;26.50;43.67
10606;BME280;5350;42.698;23.148;2023-08-12T09:33:06;94140.38;;;26.71;45.52
10606;BME280;5350;42.698;23.148;2023-08-12T09:35:34;94148.34;;;26.46;41.06
10606;BME280;5350;42.698;23.148;2023-08-12T09:38:03;94138.00;;;26.59;40.31
10606;BME280;5350;42.698;23.148;2023-08-12T09:40:33;94138.41;;;26.61;41.04
10606;BME280;5350;42.698;23.148;2023-08-12T09:43:00;94144.19;;;26.63;40.47
10606;BME280;5350;42.698;23.148;2023-08-12T09:45:27;94136.09;;;26.59;41.35
10606;BME280;5350;42.698;23.148;2023-08-12T09:47:54;94132.38;;;26.81;43.17
10606;BME280;5350;42.698;23.148;2023-08-12T09:50:21;94128.97;;;26.99;42.86
10606;BME280;5350;42.698;23.148;2023-08-12T09:52:49;94137.94;;;27.20;43.45
10606;BME280;5350;42.698;23.148;2023-08-12T09:55:17;94128.72;;;27.28;41.01
10606;BME280;5350;42.698;23.148;2023-08-12T09:57:48;94130.69;;;27.38;40.31
10606;BME280;5350;42.698;23.148;2023-08-12T10:00:18;94119.16;;;27.55;39.05
10606;BME280;5350;42.698;23.148;2023-08-12T10:02:47;94119.91;;;27.56;40.38
10606;BME280;5350;42.698;23.148;2023-08-12T10:05:19;94122.66;;;27.70;38.31
10606;BME280;5350;42.698;23.148;2023-08-12T10:07:47;94120.72;;;27.74;39.68
10606;BME280;5350;42.698;23.148;2023-08-12T10:10:14;94115.72;;;27.87;37.70
10606;BME280;5350;42.698;23.148;2023-08-12T10:12:41;94121.13;;;27.87;38.08
10606;BME280;5350;42.698;23.148;2023-08-12T10:15:10;94109.53;;;27.86;37.65
10606;BME280;5350;42.698;23.148;2023-08-12T10:17:38;94103.75;;;27.98;40.21
10606;BME280;5350;42.698;23.148;2023-08-12T10:20:08;94111.09;;;28.12;37.86
10606;BME280;5350;42.698;23.148;2023-08-12T10:22:35;94101.03;;;27.88;37.00
10606;BME280;5350;42.698;23.148;2023-08-12T10:25:03;94095.66;;;28.05;38.52
10606;BME280;5350;42.698;23.148;2023-08-12T10:27:30;94101.03;;;28.19;39.11
10606;BME280;5350;42.698;23.148;2023-08-12T10:29:57;94108.75;;;28.35;36.37
10606;BME280;5350;42.698;23.148;2023-08-12T10:32:25;94103.75;;;28.37;36.20
10606;BME280;5350;42.698;23.148;2023-08-12T10:34:55;94098.31;;;28.30;37.06
10606;BME280;5350;42.698;23.148;2023-08-12T10:37:23;94090.16;;;28.55;37.13
10606;BME280;5350;42.698;23.148;2023-08-12T10:39:52;94095.56;;;28.58;37.71
10606;BME280;5350;42.698;23.148;2023-08-12T10:42:44;94084.66;;;28.93;35.40
10606;BME280;5350;42.698;23.148;2023-08-12T10:45:12;94080.88;;;28.70;35.15
10606;BME280;5350;42.698;23.148;2023-08-12T10:47:42;94078.53;;;28.75;35.59
10606;BME280;5350;42.698;23.148;2023-08-12T10:50:19;94072.63;;;29.01;37.17
10606;BME280;5350;42.698;23.148;2023-08-12T10:52:46;94073.38;;;29.05;36.40
10606;BME280;5350;42.698;23.148;2023-08-12T10:55:20;94069.38;;;29.35;36.92
10606;BME280;5350;42.698;23.148;2023-08-12T10:57:48;94068.13;;;29.46;35.85
10606;BME280;5350;42.698;23.148;2023-08-12T11:00:16;94066.28;;;29.33;33.01
10606;BME280;5350;42.698;23.148;2023-08-12T11:02:49;94064.22;;;29.51;32.04
10606;BME280;5350;42.698;23.148;2023-08-12T11:05:16;94057.50;;;29.73;34.57
10606;BME280;5350;42.698;23.148;2023-08-12T11:07:45;94058.53;;;29.93;32.98
10606;BME280;5350;42.698;23.148;2023-08-12T11:10:14;94056.78;;;30.13;31.59
10606;BME280;5350;42.698;23.148;2023-08-12T11:12:42;94054.31;;;30.29;34.48
10606;BME280;5350;42.698;23.148;2023-08-12T11:15:12;94055.50;;;30.65;30.94
10606;BME280;5350;42.698;23.148;2023-08-12T11:17:40;94051.34;;;30.57;31.46
10606;BME280;5350;42.698;23.148;2023-08-12T11:20:10;94044.53;;;30.76;32.62
10606;BME280;5350;42.698;23.148;2023-08-12T11:22:38;94044.56;;;30.72;30.64
10606;BME280;5350;42.698;23.148;2023-08-12T11:25:07;94048.97;;;30.59;31.95
10606;BME280;5350;42.698;23.148;2023-08-12T11:27:38;94052.44;;;30.97;31.38
10606;BME280;5350;42.698;23.148;2023-08-12T11:30:07;94018.84;;;31.14;32.68
10606;BME280;5350;42.698;23.148;2023-08-12T11:32:34;94038.53;;;31.52;29.68
10606;BME280;5350;42.698;23.148;2023-08-12T11:35:01;94037.84;;;31.44;30.40
10606;BME280;5350;42.698;23.148;2023-08-12T11:37:30;94036.72;;;31.42;31.57
10606;BME280;5350;42.698;23.148;2023-08-12T11:39:57;94036.66;;;31.72;31.42
10606;BME280;5350;42.698;23.148;2023-08-12T11:42:24;94036.41;;;31.86;31.71
10606;BME280;5350;42.698;23.148;2023-08-12T11:44:50;94032.78;;;31.70;28.79
10606;BME280;5350;42.698;23.148;2023-08-12T11:47:17;94034.91;;;31.59;28.56
10606;BME280;5350;42.698;23.148;2023-08-12T11:49:44;94039.63;;;31.81;28.97
10606;BME280;5350;42.698;23.148;2023-08-12T11:52:11;94031.97;;;31.99;28.24
10606;BME280;5350;42.698;23.148;2023-08-12T11:54:40;93977.88;;;31.78;29.30
10606;BME280;5350;42.698;23.148;2023-08-12T11:57:06;94021.41;;;32.24;31.36
10606;BME280;5350;42.698;23.148;2023-08-12T11:59:33;94022.63;;;32.43;27.46
10606;BME280;5350;42.698;23.148;2023-08-12T12:02:02;94018.09;;;32.13;29.70
10606;BME280;5350;42.698;23.148;2023-08-12T12:04:30;94026.13;;;31.74;30.23
10606;BME280;5350;42.698;23.148;2023-08-12T12:06:57;94020.03;;;31.67;29.68
10606;BME280;5350;42.698;23.148;2023-08-12T12:09:25;94009.78;;;30.94;31.10
10606;BME280;5350;42.698;23.148;2023-08-12T12:11:53;94009.94;;;30.50;32.06
10606;BME280;5350;42.698;23.148;2023-08-12T12:14:20;94018.72;;;30.24;33.06
10606;BME280;5350;42.698;23.148;2023-08-12T12:16:48;94013.31;;;30.20;33.29
10606;BME280;5350;42.698;23.148;2023-08-12T12:19:17;94008.09;;;29.99;33.92
10606;BME280;5350;42.698;23.148;2023-08-12T12:21:45;94007.44;;;29.88;35.97
10606;BME280;5350;42.698;23.148;2023-08-12T12:24:12;94015.00;;;29.59;34.99
10606;BME280;5350;42.698;23.148;2023-08-12T12:26:39;94005.53;;;29.30;35.04
10606;BME280;5350;42.698;23.148;2023-08-12T12:29:08;94007.56;;;29.67;36.09
10606;BME280;5350;42.698;23.148;2023-08-12T12:31:37;94009.63;;;30.00;33.67
10606;BME280;5350;42.698;23.148;2023-08-12T12:34:05;94017.03;;;29.96;35.36
10606;BME280;5350;42.698;23.148;2023-08-12T12:36:33;94006.63;;;29.91;34.37
10606;BME280;5350;42.698;23.148;2023-08-12T12:39:00;94009.78;;;30.23;34.43
10606;BME280;5350;42.698;23.148;2023-08-12T12:41:28;94009.16;;;30.49;33.96
10606;BME280;5350;42.698;23.148;2023-08-12T12:43:55;93997.03;;;30.57;32.01
10606;BME280;5350;42.698;23.148;2023-08-12T12:46:23;94001.84;;;30.76;32.24
10606;BME280;5350;42.698;23.148;2023-08-12T12:48:50;94000.66;;;30.77;33.38
10606;BME280;5350;42.698;23.148;2023-08-12T12:51:16;94005.31;;;30.47;31.88
10606;BME280;5350;42.698;23.148;2023-08-12T12:53:43;93997.41;;;30.22;33.56
10606;BME280;5350;42.698;23.148;2023-08-12T12:56:10;93995.59;;;30.09;35.37
10606;BME280;5350;42.698;23.148;2023-08-12T12:58:37;93992.13;;;29.64;34.19